Imperial County Airport Imperial US
ICAO: KIPL
IATA: IPL
Category: Medium
Scheduled Services: No

Elevation: -54 ft
TransAlt. 18000 ft.

Airport Communications:
ASOS:132.175
LOS ANGELES CNTR:128.6
SAN DIEGO RDO:122.5
CTAF/UNICOM:122.7

KIPL Zoom In..

Runways:

(A) RW 08 length 4501 ft width 75 ft
---- / hdg 76

(B) RW 14 length 5308 ft width 100 ft
---- / hdg 139

(C) RW 26 length 4501 ft width 75 ft
---- / hdg 256

(D) RW 32 length 5308 ft width 100 ft
---- / hdg 319

Location; KIPL
Day. 21 / Time. 14.53 Zulu
* Altimeter: 29.73
* Temperature: 22° c. 71.6°f.
* Wind from: 320° Speed 03 kn.
Dewpoint: 06° c.
Visibility: 10 Statute Miles.
Clouds: Clear (automated report).

KIPL 211453Z AUTO 32003KT 10SM CLR 22/06 A2973 RMK AO2 SLP066 T02220056 53015


Wind From 320°
Speed 03 kn.

 
 
jpsmedia.com for Web Design SOUNDCLOUD worldairports.se 2018   terms of use